Terminal Aerodrome Forecast
Issued by NWS Wilmington, OH

Current Version | Previous Version | Graphics & Text | Print | Product List | Glossary On
Versions: 1 2 3 4 5 6 7 8 9 10 11 12 13 14 15 16 17 18 19 20 21 22 23 24 25 26 27 28 29 30
000
FTUS41 KILN 230540
TAFILN
TAF
KILN 230540Z 2306/2406 13007KT 2SM -DZ BR OVC003
     FM231000 14006KT 2SM -SHRA BR OVC008
     FM231400 23012KT 5SM BR VCSH OVC006
     FM231700 23012KT P6SM OVC010
     FM232200 27009KT P6SM OVC015
      TEMPO 2323/2403 SCT010 OVC100=

USA.gov is the U.S. government's official web portal to all federal, state and local government web resources and services.